Terminal Aerodrome Forecast
Issued by NWS

Home | Current Version | Previous Version | Text Only | Print | Product List | Glossary On
Versions: 1 2 3 4 5 6 7 8 9 10 11 12 13 14 15 16 17 18 19 20 21 22 23 24 25 26 27 28 29 30 31 32 33 34 35 36 37 38 39 40 41 42
000
FTUS41 KOKX 201555 AAB
TAFGON
TAF AMD
KGON 201555Z 2016/2112 21006KT P6SM SCT250
     FM201700 22008KT P6SM SCT050 SCT250
     FM210300 25004KT P6SM SCT050 SCT150 PROB30 2103/2106 3SM TSRA
      BKN040CB
     FM210700 30003KT P6SM FEW060=

USA.gov is the U.S. government's official web portal to all federal, state and local government web resources and services.